Time;durP1;ratioP1;P1;durP2;ratioP2;P2;SDS_P1;SDS_P2;PMS_P1;PMS_P2;Temp;Humidity;BMP_temperature;BMP_pressure;BME280_temperature;BME280_humidity;BME280_pressure;Samples;Min_cycle;Max_cycle;Signal;HPM_P1;HPM_P2
2021/06/29 00:00:46;;;;;;;;;;;;;;;19.84;77.13;101281.31;5136431;27;19914;-40
2021/06/29 00:03:11;;;;;;;;;;;;;;;19.84;77.20;101282.13;5135565;27;20024;-40
2021/06/29 00:05:37;;;;;;;;;;;;;;;19.85;77.38;101278.28;5135564;27;19942;-40
2021/06/29 00:08:02;;;;;;;;;;;;;;;19.83;77.75;101277.75;5136027;27;19911;-40
2021/06/29 00:10:28;;;;;;;;;;;;;;;19.80;77.40;101276.38;5135756;27;19907;-40
2021/06/29 00:12:53;;;;;;;;;;;;;;;19.80;77.61;101279.13;5135324;27;19907;-40
2021/06/29 00:15:23;;;;;;;;;;;;;;;19.80;77.20;101281.06;5136016;27;19907;-40
2021/06/29 00:17:48;;;;;;;;;;;;;;;19.81;77.46;101274.47;5135867;27;19915;-40
2021/06/29 00:20:14;;;;;;;;;;;;;;;19.83;77.63;101268.72;5135106;27;19914;-40
2021/06/29 00:22:40;;;;;;;;;;;;;;;19.82;77.31;101256.09;5135515;27;20014;-40
2021/06/29 00:25:05;;;;;;;;;;;;;;;19.82;77.49;101262.41;5135505;27;19907;-40
2021/06/29 00:27:31;;;;;;;;;;;;;;;19.82;77.49;101256.91;5135115;27;20057;-40
2021/06/29 00:29:56;;;;;;;;;;;;;;;19.83;77.38;101255.81;5136008;27;19952;-40
2021/06/29 00:32:21;;;;;;;;;;;;;;;19.83;77.28;101257.75;5134743;27;20014;-40
2021/06/29 00:34:46;;;;;;;;;;;;;;;19.83;77.18;101252.25;5135457;27;19914;-40
2021/06/29 00:37:11;;;;;;;;;;;;;;;19.83;77.68;101250.31;5134716;27;19918;-40
2021/06/29 00:39:37;;;;;;;;;;;;;;;19.83;77.64;101249.50;5134790;27;20407;-40
2021/06/29 00:42:02;;;;;;;;;;;;;;;19.82;78.09;101236.91;5135004;27;19907;-40
2021/06/29 00:44:27;;;;;;;;;;;;;;;19.82;78.09;101242.38;5135502;27;20432;-40
2021/06/29 00:46:54;;;;;;;;;;;;;;;19.80;78.06;101243.47;5135519;27;20250;-40
2021/06/29 00:49:19;;;;;;;;;;;;;;;19.80;77.84;101237.97;5134854;27;20011;-40
2021/06/29 00:51:45;;;;;;;;;;;;;;;19.77;77.72;101244.03;5135345;27;19912;-40
2021/06/29 00:54:12;;;;;;;;;;;;;;;19.75;77.43;101234.44;5134807;27;19914;-40
2021/06/29 00:56:37;;;;;;;;;;;;;;;19.74;77.57;101233.63;5135359;27;19918;-40
2021/06/29 00:59:03;;;;;;;;;;;;;;;19.75;77.89;101242.66;5134782;27;20269;-40
2021/06/29 01:01:28;;;;;;;;;;;;;;;19.74;77.53;101246.53;5134523;28;19907;-40
2021/06/29 01:03:53;;;;;;;;;;;;;;;19.73;78.21;101242.16;5134709;28;19908;-40
2021/06/29 01:06:19;;;;;;;;;;;;;;;19.70;77.92;101246.25;5135042;28;19950;-40
2021/06/29 01:08:44;;;;;;;;;;;;;;;19.69;77.83;101236.41;5135056;27;19946;-40
2021/06/29 01:11:10;;;;;;;;;;;;;;;19.68;77.71;101240.25;5135062;28;19908;-40
2021/06/29 01:13:39;;;;;;;;;;;;;;;19.69;77.65;101239.13;5134978;27;19930;-41
2021/06/29 01:16:06;;;;;;;;;;;;;;;19.70;77.83;101235.28;5135303;27;20385;-40
2021/06/29 01:18:38;;;;;;;;;;;;;;;19.69;77.75;101230.91;5134872;27;20343;-40
2021/06/29 01:21:05;;;;;;;;;;;;;;;19.69;77.88;101233.66;5134980;27;19992;-40
2021/06/29 01:23:30;;;;;;;;;;;;;;;19.71;77.97;101219.66;5134366;27;19921;-40
2021/06/29 01:26:10;;;;;;;;;;;;;;;19.72;78.12;101221.31;5135134;27;19911;-40
2021/06/29 01:29:09;;;;;;;;;;;;;;;19.72;77.97;101218.56;5134272;27;19911;-40
2021/06/29 01:31:28;;;;;;;;;;;;;;;19.70;78.08;101210.59;5131674;27;19907;-40
2021/06/29 01:33:53;;;;;;;;;;;;;;;19.68;78.21;101207.31;5138449;27;20391;-40
2021/06/29 01:36:20;;;;;;;;;;;;;;;19.66;78.25;101201.28;5138589;27;19908;-40
2021/06/29 01:38:46;;;;;;;;;;;;;;;19.63;78.28;101204.63;5139234;27;19949;-40
2021/06/29 01:41:15;;;;;;;;;;;;;;;19.61;78.40;101204.06;5139023;27;19914;-40
2021/06/29 01:46:09;;;;;;;;;;;;;;;19.58;78.27;101212.84;5138971;27;19908;-40
2021/06/29 01:48:55;;;;;;;;;;;;;;;19.56;78.53;101209.53;5074845;28;19916;-40
2021/06/29 01:51:22;;;;;;;;;;;;;;;19.53;78.26;101199.97;5074894;28;19908;-40
2021/06/29 01:53:50;;;;;;;;;;;;;;;19.50;79.05;101188.72;5074617;28;20003;-40
2021/06/29 01:56:16;;;;;;;;;;;;;;;19.45;78.48;101192.31;5074503;28;20050;-40
2021/06/29 01:58:42;;;;;;;;;;;;;;;19.40;79.73;101186.88;5074413;28;19951;-40
2021/06/29 02:01:08;;;;;;;;;;;;;;;19.38;80.45;101188.25;5074632;28;19914;-40
2021/06/29 02:03:33;;;;;;;;;;;;;;;19.35;79.47;101180.59;5074607;28;19908;-40
2021/06/29 02:05:58;;;;;;;;;;;;;;;19.34;79.84;101181.69;5074972;28;19908;-40
2021/06/29 02:08:23;;;;;;;;;;;;;;;19.33;79.46;101180.06;5074261;28;19952;-40
2021/06/29 02:10:49;;;;;;;;;;;;;;;19.34;79.18;101179.78;5075079;28;20026;-40
2021/06/29 02:13:14;;;;;;;;;;;;;;;19.36;79.40;101177.56;5074231;28;19991;-40
2021/06/29 02:15:39;;;;;;;;;;;;;;;19.36;79.29;101174.81;5074158;28;19958;-40
2021/06/29 02:18:04;;;;;;;;;;;;;;;19.38;79.03;101172.63;5074067;28;19908;-40
2021/06/29 02:20:30;;;;;;;;;;;;;;;19.40;78.99;101172.34;5074076;28;20014;-40
2021/06/29 02:22:55;;;;;;;;;;;;;;;19.39;78.71;101171.53;5074010;28;19958;-40
2021/06/29 02:25:21;;;;;;;;;;;;;;;19.39;79.33;101176.19;5094440;27;20308;-40
2021/06/29 02:27:46;;;;;;;;;;;;;;;19.36;79.05;101182.22;5137478;27;19907;-40
2021/06/29 02:30:12;;;;;;;;;;;;;;;19.37;78.97;101178.38;5137463;27;19915;-40
2021/06/29 02:32:37;;;;;;;;;;;;;;;19.36;79.41;101171.25;5137060;27;19911;-40
2021/06/29 02:35:04;;;;;;;;;;;;;;;19.34;79.26;101170.72;5137856;27;20010;-40
2021/06/29 02:37:29;;;;;;;;;;;;;;;19.34;79.34;101176.22;5137265;27;20263;-40
2021/06/29 02:39:54;;;;;;;;;;;;;;;19.32;79.43;101176.47;5137234;27;19907;-40
2021/06/29 02:42:19;;;;;;;;;;;;;;;19.33;79.10;101174.56;5137156;27;19914;-40
2021/06/29 02:44:45;;;;;;;;;;;;;;;19.30;79.56;101173.19;5136374;27;19993;-40
2021/06/29 02:47:11;;;;;;;;;;;;;;;19.28;79.53;101178.97;5137155;27;19907;-40
2021/06/29 02:49:37;;;;;;;;;;;;;;;19.26;79.34;101177.59;5137429;27;19907;-40
2021/06/29 02:52:02;;;;;;;;;;;;;;;19.25;80.86;101173.22;5136745;27;19908;-40
2021/06/29 02:54:27;;;;;;;;;;;;;;;19.19;80.15;101161.47;5137104;27;19965;-40
2021/06/29 02:56:53;;;;;;;;;;;;;;;19.18;79.80;101159.84;5136995;27;19911;-40
2021/06/29 02:59:18;;;;;;;;;;;;;;;19.18;79.84;101173.53;5136869;27;19907;-40
2021/06/29 03:01:44;;;;;;;;;;;;;;;19.18;79.57;101186.41;5137174;27;19983;-40
2021/06/29 03:04:09;;;;;;;;;;;;;;;19.17;79.68;101185.59;5137049;27;20355;-40
2021/06/29 03:06:35;;;;;;;;;;;;;;;19.16;80.04;101194.91;5136791;27;19952;-40
2021/06/29 03:09:01;;;;;;;;;;;;;;;19.15;79.72;101193.28;5136729;27;19958;-40
2021/06/29 03:11:27;;;;;;;;;;;;;;;19.15;79.73;101192.47;5137233;27;20292;-40
2021/06/29 03:13:52;;;;;;;;;;;;;;;19.16;80.35;101185.88;5136204;27;20327;-40
2021/06/29 03:16:17;;;;;;;;;;;;;;;19.13;79.81;101179.03;5136933;27;19939;-40
2021/06/29 03:18:43;;;;;;;;;;;;;;;19.14;79.77;101177.13;5136501;27;19930;-40
2021/06/29 03:21:08;;;;;;;;;;;;;;;19.14;80.15;101185.34;5136428;27;20002;-40
2021/06/29 03:23:34;;;;;;;;;;;;;;;19.13;79.89;101176.31;5136712;27;19907;-40
2021/06/29 03:25:59;;;;;;;;;;;;;;;19.13;79.87;101169.97;5136370;27;20308;-40
2021/06/29 03:28:24;;;;;;;;;;;;;;;19.10;80.70;101168.63;5135037;27;19907;-40
2021/06/29 03:30:50;;;;;;;;;;;;;;;19.07;80.19;101160.13;5136854;27;19946;-40
2021/06/29 03:33:15;;;;;;;;;;;;;;;19.06;80.61;101166.72;5136156;27;20007;-40
2021/06/29 03:35:40;;;;;;;;;;;;;;;19.02;80.15;101172.75;5136813;27;20021;-40
2021/06/29 03:38:05;;;;;;;;;;;;;;;19.02;80.38;101166.47;5136174;27;19907;-40
2021/06/29 03:40:31;;;;;;;;;;;;;;;19.02;80.23;101174.69;5136396;27;19964;-40
2021/06/29 03:42:56;;;;;;;;;;;;;;;19.01;80.35;101176.59;5136234;27;19995;-40
2021/06/29 03:45:21;;;;;;;;;;;;;;;19.00;80.12;101177.72;5134901;27;20365;-40
2021/06/29 03:47:46;;;;;;;;;;;;;;;19.00;80.26;101179.63;5136413;27;20327;-40
2021/06/29 03:50:11;;;;;;;;;;;;;;;19.01;80.23;101175.78;5135583;27;19907;-40
2021/06/29 03:52:37;;;;;;;;;;;;;;;18.99;80.40;101184.28;5135437;27;19911;-40
2021/06/29 03:55:04;;;;;;;;;;;;;;;18.98;80.43;101184.56;5135229;27;20288;-40
2021/06/29 03:57:29;;;;;;;;;;;;;;;18.97;80.52;101185.66;5135672;27;20010;-40
2021/06/29 03:59:55;;;;;;;;;;;;;;;18.96;80.39;101178.53;5135493;27;19950;-40
2021/06/29 04:02:20;;;;;;;;;;;;;;;18.97;80.34;101185.66;5136059;27;20399;-40
2021/06/29 04:04:45;;;;;;;;;;;;;;;19.00;80.54;101182.38;5135352;27;19951;-40
2021/06/29 04:07:11;;;;;;;;;;;;;;;19.01;80.68;101187.56;5135681;27;19926;-40
2021/06/29 04:09:37;;;;;;;;;;;;;;;19.01;80.84;101178.53;5135655;27;19907;-40
2021/06/29 04:12:03;;;;;;;;;;;;;;;19.01;80.65;101175.78;5135373;27;19911;-40
2021/06/29 04:14:28;;;;;;;;;;;;;;;19.02;80.41;101177.41;5135566;27;19951;-40
2021/06/29 04:16:54;;;;;;;;;;;;;;;19.03;80.64;101173.56;5135741;27;20300;-41
2021/06/29 04:19:19;;;;;;;;;;;;;;;19.02;80.47;101180.16;5135333;27;20325;-41
2021/06/29 04:21:44;;;;;;;;;;;;;;;19.01;80.75;101173.03;5135994;27;19907;-41
2021/06/29 04:24:10;;;;;;;;;;;;;;;19.02;80.88;101171.94;5135343;27;19915;-41
2021/06/29 04:26:35;;;;;;;;;;;;;;;19.00;81.30;101174.16;5135528;27;19907;-40
2021/06/29 04:29:01;;;;;;;;;;;;;;;18.99;80.74;101169.78;5135432;27;19915;-40
2021/06/29 04:31:27;;;;;;;;;;;;;;;19.01;81.24;101178.53;5135529;27;19950;-41
2021/06/29 04:33:53;;;;;;;;;;;;;;;18.99;81.23;101184.28;5134773;27;20259;-40
2021/06/29 04:36:18;;;;;;;;;;;;;;;18.98;81.39;101176.34;5135389;27;19960;-41
2021/06/29 04:38:43;;;;;;;;;;;;;;;18.96;82.56;101181.28;5135294;27;19908;-40
2021/06/29 04:41:09;;;;;;;;;;;;;;;18.92;81.69;101174.72;5135613;27;19943;-41
2021/06/29 04:43:37;;;;;;;;;;;;;;;18.90;81.10;101179.66;5135263;27;19955;-40
2021/06/29 04:46:03;;;;;;;;;;;;;;;18.91;81.05;101175.81;5135719;27;19993;-41
2021/06/29 04:48:28;;;;;;;;;;;;;;;18.97;81.15;101171.97;5135384;27;20310;-41
2021/06/29 04:50:53;;;;;;;;;;;;;;;18.99;81.20;101172.53;5134511;27;19969;-40
2021/06/29 04:53:18;;;;;;;;;;;;;;;19.01;80.67;101173.88;5134671;27;19955;-40
2021/06/29 04:55:44;;;;;;;;;;;;;;;19.04;80.92;101164.28;5134720;27;19911;-40
2021/06/29 04:58:09;;;;;;;;;;;;;;;19.04;80.91;101164.28;5134739;28;20073;-41
2021/06/29 05:00:34;;;;;;;;;;;;;;;19.07;81.29;101166.44;5135508;27;20006;-40
2021/06/29 05:03:02;;;;;;;;;;;;;;;19.07;81.26;101162.88;5134755;27;20383;-41
2021/06/29 05:05:27;;;;;;;;;;;;;;;19.07;81.25;101166.44;5135316;27;19912;-40
2021/06/29 05:07:54;;;;;;;;;;;;;;;19.09;80.99;101164.25;5137814;27;20350;-41
2021/06/29 05:10:19;;;;;;;;;;;;;;;19.12;81.08;101160.94;5139061;27;19907;-41
2021/06/29 05:12:48;;;;;;;;;;;;;;;19.17;80.97;101160.91;5138934;27;19907;-41
2021/06/29 05:15:13;;;;;;;;;;;;;;;19.22;80.89;101160.88;5139280;27;19914;-40
2021/06/29 05:17:38;;;;;;;;;;;;;;;19.25;81.14;101154.84;5138612;27;19907;-40
2021/06/29 05:20:04;;;;;;;;;;;;;;;19.28;80.83;101158.97;5139091;27;19907;-41
2021/06/29 05:22:29;;;;;;;;;;;;;;;19.29;80.86;101163.34;5139055;27;19951;-41
2021/06/29 05:24:54;;;;;;;;;;;;;;;19.30;80.99;101163.06;5138444;27;20327;-41
2021/06/29 05:27:20;;;;;;;;;;;;;;;19.31;80.74;101174.84;5138617;27;20006;-41
2021/06/29 05:29:45;;;;;;;;;;;;;;;19.28;80.78;101170.75;5139149;27;19908;-40
2021/06/29 05:32:10;;;;;;;;;;;;;;;19.29;80.83;101180.63;5138959;27;20233;-40
2021/06/29 05:34:37;;;;;;;;;;;;;;;19.29;81.51;101188.84;5138559;27;19911;-40
2021/06/29 05:37:02;;;;;;;;;;;;;;;19.29;81.28;101193.50;5139048;27;20248;-40
2021/06/29 05:39:27;;;;;;;;;;;;;;;19.28;81.50;101198.16;5138460;27;19944;-40
2021/06/29 05:41:52;;;;;;;;;;;;;;;19.30;81.14;101193.22;5138928;27;20048;-41
2021/06/29 05:44:17;;;;;;;;;;;;;;;19.31;81.74;101191.28;5138036;27;19913;-41
2021/06/29 05:46:43;;;;;;;;;;;;;;;19.32;81.25;101192.09;5138379;27;20287;-41
2021/06/29 05:49:11;;;;;;;;;;;;;;;19.34;81.49;101195.41;5137965;27;19911;-41
2021/06/29 05:51:37;;;;;;;;;;;;;;;19.30;81.66;101201.44;5138754;27;19907;-41
2021/06/29 05:54:02;;;;;;;;;;;;;;;19.32;81.61;101197.59;5138884;27;19908;-41
2021/06/29 05:56:27;;;;;;;;;;;;;;;19.31;81.50;101199.50;5137390;27;19964;-41
2021/06/29 05:58:53;;;;;;;;;;;;;;;19.32;81.46;101203.06;5136753;28;19907;-41
2021/06/29 06:01:18;;;;;;;;;;;;;;;19.31;81.69;101191.28;5137041;28;19961;-41
2021/06/29 06:03:43;;;;;;;;;;;;;;;19.30;82.02;101206.91;5136778;28;19907;-41
2021/06/29 06:06:08;;;;;;;;;;;;;;;19.29;81.89;101201.72;5136919;28;19926;-41
2021/06/29 06:08:33;;;;;;;;;;;;;;;19.28;82.43;101203.66;5137125;28;19907;-41
2021/06/29 06:10:59;;;;;;;;;;;;;;;19.26;81.82;101200.34;5136817;28;19907;-41
2021/06/29 06:13:24;;;;;;;;;;;;;;;19.26;81.94;101199.53;5136427;28;19968;-41
2021/06/29 06:15:52;;;;;;;;;;;;;;;19.25;81.64;101197.91;5136586;28;20369;-41
2021/06/29 06:18:17;;;;;;;;;;;;;;;19.25;82.29;101198.72;5136111;27;19993;-41
2021/06/29 06:20:42;;;;;;;;;;;;;;;19.24;82.21;101191.59;5136766;28;19946;-41
2021/06/29 06:23:07;;;;;;;;;;;;;;;19.25;82.30;101192.41;5136417;28;19911;-40
2021/06/29 06:25:34;;;;;;;;;;;;;;;19.23;82.60;101197.38;5136711;28;19911;-40
2021/06/29 06:27:59;;;;;;;;;;;;;;;19.21;83.01;101194.06;5136364;27;19921;-41
2021/06/29 06:30:25;;;;;;;;;;;;;;;19.17;83.43;101196.53;5136939;27;19907;-41
2021/06/29 06:32:50;;;;;;;;;;;;;;;19.12;83.48;101198.50;5136467;28;19997;-40
2021/06/29 06:35:15;;;;;;;;;;;;;;;19.11;84.51;101194.94;5136859;28;19968;-41
2021/06/29 06:37:40;;;;;;;;;;;;;;;19.15;83.02;101195.19;5136216;28;19915;-41
2021/06/29 06:40:06;;;;;;;;;;;;;;;19.19;82.86;101188.88;5137054;28;19907;-40
2021/06/29 06:42:31;;;;;;;;;;;;;;;19.25;82.51;101185.00;5135804;27;19953;-41
2021/06/29 06:44:57;;;;;;;;;;;;;;;19.34;82.63;101190.75;5136764;27;20002;-41
2021/06/29 06:47:22;;;;;;;;;;;;;;;19.41;83.01;101179.44;5136053;27;19907;-41
2021/06/29 06:49:48;;;;;;;;;;;;;;;19.42;82.51;101190.16;5136343;28;20298;-41
2021/06/29 06:52:13;;;;;;;;;;;;;;;19.44;82.16;101187.94;5135828;28;19915;-40
2021/06/29 06:54:44;;;;;;;;;;;;;;;19.47;82.04;101192.88;4680124;27;18594281;-41
2021/06/29 06:57:10;;;;;;;;;;;;;;;19.48;81.94;101191.78;5137862;27;19934;-41
2021/06/29 06:59:35;;;;;;;;;;;;;;;19.48;81.83;101186.28;5137445;27;20005;-40
2021/06/29 07:02:00;;;;;;;;;;;;;;;19.50;81.70;101202.44;5137203;27;19915;-41
2021/06/29 07:04:25;;;;;;;;;;;;;;;19.50;81.67;101205.19;5136462;27;19994;-41
2021/06/29 07:06:51;;;;;;;;;;;;;;;19.49;82.73;101203.56;5136867;27;19911;-41
2021/06/29 07:09:16;;;;;;;;;;;;;;;19.48;82.04;101201.91;5136377;27;19990;-40
2021/06/29 07:11:42;;;;;;;;;;;;;;;19.49;81.75;101204.38;5136758;27;19933;-41
2021/06/29 07:14:08;;;;;;;;;;;;;;;19.52;81.76;101201.06;5136543;27;19960;-41
2021/06/29 07:16:33;;;;;;;;;;;;;;;19.56;82.02;101204.06;5136920;27;19907;-41
2021/06/29 07:18:58;;;;;;;;;;;;;;;19.57;81.81;101205.72;5136209;27;19914;-41
2021/06/29 07:21:26;;;;;;;;;;;;;;;19.61;81.65;101204.06;5137254;27;19914;-41
2021/06/29 07:23:52;;;;;;;;;;;;;;;19.66;82.08;101204.03;5136965;27;19916;-41
2021/06/29 07:26:17;;;;;;;;;;;;;;;19.69;82.00;101197.97;5136493;27;19914;-40
2021/06/29 07:28:42;;;;;;;;;;;;;;;19.71;82.01;101198.50;5136240;27;19911;-41
2021/06/29 07:31:08;;;;;;;;;;;;;;;19.71;81.69;101201.25;5135664;27;19908;-41
2021/06/29 07:33:33;;;;;;;;;;;;;;;19.73;81.41;101196.31;5136184;27;19908;-41
2021/06/29 07:35:58;;;;;;;;;;;;;;;19.77;81.49;101197.41;5136033;27;19907;-41
2021/06/29 07:38:23;;;;;;;;;;;;;;;19.82;81.14;101190.25;5136145;27;20362;-41
2021/06/29 07:40:49;;;;;;;;;;;;;;;19.88;81.18;101186.34;5135799;27;19960;-41
2021/06/29 07:43:14;;;;;;;;;;;;;;;19.90;80.64;101192.38;5135996;27;19921;-41
2021/06/29 07:45:39;;;;;;;;;;;;;;;19.91;80.50;101188.50;5136073;27;20411;-40
2021/06/29 07:48:06;;;;;;;;;;;;;;;19.93;80.57;101191.81;5136308;27;19921;-41
2021/06/29 07:50:31;;;;;;;;;;;;;;;19.98;80.29;101189.03;5135933;27;19907;-40
2021/06/29 07:52:57;;;;;;;;;;;;;;;20.04;80.29;101190.63;5136601;27;19914;-41
2021/06/29 07:55:24;;;;;;;;;;;;;;;20.09;80.08;101195.25;5136450;27;20009;-41
2021/06/29 07:57:50;;;;;;;;;;;;;;;20.01;79.37;101183.78;5135435;27;19942;-40
2021/06/29 08:00:15;;;;;;;;;;;;;;;20.12;79.87;101189.19;5136289;27;19981;-41
2021/06/29 08:02:40;;;;;;;;;;;;;;;20.30;79.95;101175.59;5135652;27;19914;-41
2021/06/29 08:05:06;;;;;;;;;;;;;;;20.51;79.44;101181.75;5135904;27;19914;-40
2021/06/29 08:07:32;;;;;;;;;;;;;;;20.75;79.04;101181.78;5136407;27;20312;-41
2021/06/29 08:09:57;;;;;;;;;;;;;;;20.95;78.61;101171.66;5136226;27;19914;-41
2021/06/29 08:12:23;;;;;;;;;;;;;;;21.13;78.16;101176.41;5135992;27;20002;-41
2021/06/29 08:14:48;;;;;;;;;;;;;;;21.21;77.92;101174.91;5135824;27;20411;-40
2021/06/29 08:17:13;;;;;;;;;;;;;;;21.22;77.40;101185.63;5135442;27;20019;-41
2021/06/29 08:19:39;;;;;;;;;;;;;;;21.12;76.37;101185.75;5135452;27;19954;-41
2021/06/29 08:22:04;;;;;;;;;;;;;;;21.05;77.06;101188.03;5135327;27;20005;-40
2021/06/29 08:24:30;;;;;;;;;;;;;;;20.98;76.77;101187.56;5135108;27;19907;-40
2021/06/29 08:26:55;;;;;;;;;;;;;;;20.94;77.08;101189.28;5135704;27;20366;-41
2021/06/29 08:29:20;;;;;;;;;;;;;;;20.92;76.91;101184.06;5134899;27;19911;-41
2021/06/29 08:31:46;;;;;;;;;;;;;;;20.90;76.79;101178.03;5135303;27;19921;-41
2021/06/29 08:34:11;;;;;;;;;;;;;;;20.90;77.08;101190.97;5135322;27;20388;-40
2021/06/29 08:36:41;;;;;;;;;;;;;;;20.88;76.58;101188.50;5135200;27;19911;-41
2021/06/29 08:39:07;;;;;;;;;;;;;;;20.85;76.64;101196.53;5135427;27;20295;-40
2021/06/29 08:41:32;;;;;;;;;;;;;;;20.81;76.79;101197.09;5135097;27;19935;-41
2021/06/29 08:43:58;;;;;;;;;;;;;;;20.80;76.81;101200.97;5135029;27;19998;-41
2021/06/29 08:46:23;;;;;;;;;;;;;;;20.78;77.06;101196.84;5135336;27;20263;-41
2021/06/29 08:48:49;;;;;;;;;;;;;;;20.78;76.80;101199.59;5134739;27;19907;-41
2021/06/29 08:51:14;;;;;;;;;;;;;;;20.80;76.91;101200.16;5134970;27;19994;-41
2021/06/29 08:53:39;;;;;;;;;;;;;;;20.84;76.69;101198.47;5134845;27;19947;-41
2021/06/29 08:56:04;;;;;;;;;;;;;;;20.86;76.56;101198.16;5135450;27;19993;-41
2021/06/29 08:58:34;;;;;;;;;;;;;;;20.98;76.76;101204.88;5134800;27;20266;-41
2021/06/29 09:00:59;;;;;;;;;;;;;;;21.16;75.75;101195.06;5135097;27;19998;-40
2021/06/29 09:03:25;;;;;;;;;;;;;;;21.25;75.80;101190.53;5134793;27;19977;-40
2021/06/29 09:05:51;;;;;;;;;;;;;;;21.38;75.48;101188.22;5135413;28;19915;-41
2021/06/29 09:08:18;;;;;;;;;;;;;;;21.44;73.99;101201.63;5135097;27;19915;-41
2021/06/29 09:11:02;;;;;;;;;;;;;;;21.45;74.62;101194.19;5135289;27;19942;-41
2021/06/29 09:13:27;;;;;;;;;;;;;;;21.54;74.72;101190.47;5134909;27;19907;-41
2021/06/29 09:15:52;;;;;;;;;;;;;;;21.78;74.06;101187.66;5134987;27;20253;-41
2021/06/29 09:18:19;;;;;;;;;;;;;;;22.00;73.83;101183.47;5134394;28;19908;-40
2021/06/29 09:20:49;;;;;;;;;;;;;;;22.20;73.52;101176.84;5134950;27;19912;-40
2021/06/29 09:23:19;;;;;;;;;;;;;;;22.49;73.00;101179.38;5134887;27;19907;-41
2021/06/29 09:25:49;;;;;;;;;;;;;;;22.67;72.55;101183.19;5134999;27;19912;-41
2021/06/29 09:28:16;;;;;;;;;;;;;;;22.72;71.68;101194.94;5135419;27;19930;-40
2021/06/29 09:30:43;;;;;;;;;;;;;;;22.79;71.04;101192.59;5134887;27;20292;-41
2021/06/29 09:33:10;;;;;;;;;;;;;;;22.81;71.46;101192.28;5133390;28;19913;-41
2021/06/29 09:35:36;;;;;;;;;;;;;;;22.72;71.49;101194.94;5134586;27;19907;-41
2021/06/29 09:38:03;;;;;;;;;;;;;;;22.64;71.31;101192.88;5134243;27;19911;-41
2021/06/29 09:40:29;;;;;;;;;;;;;;;22.68;71.43;101193.09;5134854;27;19907;-41
2021/06/29 09:43:07;;;;;;;;;;;;;;;22.71;69.96;101196.06;5134384;27;19907;-40
2021/06/29 09:45:35;;;;;;;;;;;;;;;22.59;70.06;101192.97;5134671;27;19907;-41
2021/06/29 09:48:01;;;;;;;;;;;;;;;22.48;70.43;101191.50;5134439;27;19999;-41
2021/06/29 09:50:42;;;;;;;;;;;;;;;22.40;70.28;101195.78;5134714;27;19911;-41
2021/06/29 09:53:13;;;;;;;;;;;;;;;22.30;69.98;101199.53;5135572;27;20335;-41
2021/06/29 09:55:42;;;;;;;;;;;;;;;22.17;70.45;101194.78;5138688;27;19942;-40
2021/06/29 09:58:11;;;;;;;;;;;;;;;22.08;70.54;101202.06;5138181;27;19994;-41
2021/06/29 10:00:40;;;;;;;;;;;;;;;22.01;69.85;101209.88;5137890;27;19907;-40
2021/06/29 10:03:15;;;;;;;;;;;;;;;22.08;70.46;101207.56;5138081;27;20270;-41
2021/06/29 10:05:41;;;;;;;;;;;;;;;22.13;70.64;101209.47;5137757;27;19953;-41
2021/06/29 10:08:06;;;;;;;;;;;;;;;22.23;70.89;101212.06;5137961;27;20347;-41
2021/06/29 10:10:31;;;;;;;;;;;;;;;22.45;70.53;101208.63;5138188;27;19907;-41
2021/06/29 10:13:14;;;;;;;;;;;;;;;22.78;70.23;101204.72;5137505;27;19915;-41
2021/06/29 10:15:39;;;;;;;;;;;;;;;23.07;68.10;101209.19;5138693;27;19960;-41
2021/06/29 10:18:04;;;;;;;;;;;;;;;23.14;66.91;101204.09;5138328;27;20350;-41
2021/06/29 10:20:37;;;;;;;;;;;;;;;23.16;68.21;101203.78;5136764;27;20393;-41
2021/06/29 10:23:03;;;;;;;;;;;;;;;23.25;67.84;101202.75;5138269;27;19914;-41
2021/06/29 10:25:29;;;;;;;;;;;;;;;23.24;67.37;101201.13;5137936;27;19907;-41
2021/06/29 10:27:55;;;;;;;;;;;;;;;23.27;68.59;101197.72;5137639;27;20033;-41
2021/06/29 10:30:24;;;;;;;;;;;;;;;23.39;68.26;101200.78;5138440;27;19946;-41
2021/06/29 10:32:49;;;;;;;;;;;;;;;23.62;66.63;101200.88;5137411;27;20262;-41
2021/06/29 10:35:14;;;;;;;;;;;;;;;23.77;64.74;101196.97;5137199;27;19907;-41
2021/06/29 10:37:39;;;;;;;;;;;;;;;24.00;64.99;101198.63;5137904;27;20390;-41
2021/06/29 10:40:05;;;;;;;;;;;;;;;24.23;64.68;101198.63;5137677;27;19908;-41
2021/06/29 10:42:31;;;;;;;;;;;;;;;24.33;64.74;101192.84;5137232;27;19913;-41
2021/06/29 10:44:57;;;;;;;;;;;;;;;24.48;64.52;101191.66;5138140;27;20238;-41
2021/06/29 10:47:22;;;;;;;;;;;;;;;24.69;64.40;101184.44;5137431;27;19907;-41
2021/06/29 10:49:48;;;;;;;;;;;;;;;24.87;64.05;101188.13;5137173;27;20006;-41
2021/06/29 10:52:37;;;;;;;;;;;;;;;24.77;64.75;101183.69;5136800;27;19946;-41
2021/06/29 10:55:03;;;;;;;;;;;;;;;24.72;63.08;101183.00;5053384;28;19939;-41
2021/06/29 10:57:37;;;;;;;;;;;;;;;24.80;64.16;101173.94;5054226;28;19909;-41
2021/06/29 11:00:04;;;;;;;;;;;;;;;25.10;62.70;101175.06;5053524;28;20365;-41
2021/06/29 11:02:31;;;;;;;;;;;;;;;25.30;61.28;101168.91;5053362;28;20011;-41
2021/06/29 11:04:58;;;;;;;;;;;;;;;25.40;61.86;101165.03;5052752;28;20062;-41
2021/06/29 11:07:26;;;;;;;;;;;;;;;25.59;59.06;101161.97;5053475;28;19909;-41
2021/06/29 11:09:53;;;;;;;;;;;;;;;25.71;58.60;101169.63;5054067;28;19913;-41
2021/06/29 11:12:20;;;;;;;;;;;;;;;25.77;59.09;101165.56;5053191;28;19912;-41
2021/06/29 11:14:46;;;;;;;;;;;;;;;25.82;57.18;101160.72;5053655;28;20364;-41
2021/06/29 11:17:11;;;;;;;;;;;;;;;25.90;57.49;101162.63;5053061;28;19960;-41
2021/06/29 11:19:55;;;;;;;;;;;;;;;25.98;57.84;101149.13;5053508;28;19950;-41
2021/06/29 11:22:39;;;;;;;;;;;;;;;26.08;57.28;101151.56;5052929;28;20388;-41
2021/06/29 11:25:05;;;;;;;;;;;;;;;26.15;57.59;101140.75;5053055;28;19971;-41
2021/06/29 11:27:49;;;;;;;;;;;;;;;26.25;56.75;101145.97;5052844;28;19962;-41
2021/06/29 11:30:14;;;;;;;;;;;;;;;26.48;56.34;101141.03;5053426;28;20340;-41
2021/06/29 11:32:39;;;;;;;;;;;;;;;26.41;55.02;101138.75;5116974;27;19933;-41
2021/06/29 11:35:23;;;;;;;;;;;;;;;26.27;54.76;101126.25;5136601;27;20362;-40
2021/06/29 11:38:04;;;;;;;;;;;;;;;26.26;54.87;101119.09;5136215;27;19952;-41
2021/06/29 11:40:30;;;;;;;;;;;;;;;26.36;54.86;101114.00;5135871;27;19907;-41
2021/06/29 11:43:09;;;;;;;;;;;;;;;26.43;54.53;101111.53;5136079;27;19914;-41
2021/06/29 11:45:34;;;;;;;;;;;;;;;26.19;55.88;101114.84;5136085;27;19907;-41
2021/06/29 11:47:59;;;;;;;;;;;;;;;25.98;55.96;101113.91;5136022;27;19907;-41
2021/06/29 11:50:25;;;;;;;;;;;;;;;25.83;56.01;101118.00;5135972;27;19942;-41
2021/06/29 11:52:50;;;;;;;;;;;;;;;25.74;55.50;101121.91;5136068;27;19915;-41
2021/06/29 11:55:19;;;;;;;;;;;;;;;25.56;54.69;101119.13;5135890;27;19911;-41
2021/06/29 11:57:54;;;;;;;;;;;;;;;25.56;55.06;101127.41;5135506;27;19907;-41
2021/06/29 12:00:19;;;;;;;;;;;;;;;25.63;55.81;101118.66;5136657;27;20048;-41
2021/06/29 12:02:45;;;;;;;;;;;;;;;25.90;55.68;101115.53;5135622;27;19943;-41
2021/06/29 12:05:16;;;;;;;;;;;;;;;26.17;53.09;101116.31;5135717;27;19959;-41
2021/06/29 12:07:43;;;;;;;;;;;;;;;26.25;54.77;101112.69;5135905;27;20277;-41
2021/06/29 12:10:13;;;;;;;;;;;;;;;26.43;55.52;101108.75;5135288;27;20374;-41
2021/06/29 12:12:40;;;;;;;;;;;;;;;26.70;54.15;101106.72;5135152;27;19907;-41
2021/06/29 12:15:06;;;;;;;;;;;;;;;26.88;51.95;101104.63;5135678;27;19907;-41
2021/06/29 12:17:32;;;;;;;;;;;;;;;27.07;52.80;101104.19;5134986;27;19918;-41
2021/06/29 12:20:03;;;;;;;;;;;;;;;27.24;53.15;101104.13;5135999;27;19917;-41
2021/06/29 12:22:29;;;;;;;;;;;;;;;27.37;53.23;101102.22;5135430;27;19949;-41
2021/06/29 12:24:55;;;;;;;;;;;;;;;27.49;53.03;101093.16;5135679;27;20299;-41
2021/06/29 12:27:20;;;;;;;;;;;;;;;27.47;52.61;101090.72;5135533;27;19915;-41
2021/06/29 12:29:45;;;;;;;;;;;;;;;27.18;51.66;101094.34;5135202;27;19907;-41
2021/06/29 12:32:23;;;;;;;;;;;;;;;26.86;51.40;101102.22;5134886;27;20350;-41
2021/06/29 12:34:48;;;;;;;;;;;;;;;26.63;51.84;101100.84;5135440;27;19943;-41